Time;durP1;ratioP1;P1;durP2;ratioP2;P2;SDS_P1;SDS_P2;PMS_P1;PMS_P2;Temp;Humidity;BMP_temperature;BMP_pressure;BME280_temperature;BME280_humidity;BME280_pressure;Samples;Min_cycle;Max_cycle;Signal;HPM_P1;HPM_P2
2020/12/13 00:02:07;;;;;;;34.80;15.80;;;;;;;-2.37;91.79;100572.13;1698673;82;21160;-48
2020/12/13 00:04:34;;;;;;;41.75;16.12;;;;;;;-2.42;91.49;100566.20;1677392;81;21188;-48
2020/12/13 00:07:03;;;;;;;40.50;19.67;;;;;;;-2.45;91.37;100564.98;1748794;81;21517;-48
2020/12/13 00:09:30;;;;;;;36.70;17.52;;;;;;;-2.52;91.34;100567.73;1738624;81;21588;-48
2020/12/13 00:12:03;;;;;;;40.17;19.10;;;;;;;-2.47;91.63;100580.55;1742249;80;21380;-47
2020/12/13 00:14:31;;;;;;;33.08;15.72;;;;;;;-2.40;91.80;100583.40;1717913;81;21169;-47
2020/12/13 00:16:58;;;;;;;42.75;19.30;;;;;;;-2.29;92.00;100583.58;1709214;81;21155;-47
2020/12/13 00:19:26;;;;;;;36.58;17.70;;;;;;;-2.23;91.92;100582.98;1717524;82;21190;-47
2020/12/13 00:21:55;;;;;;;36.58;17.92;;;;;;;-2.16;91.77;100585.42;1703168;82;21129;-47
2020/12/13 00:24:23;;;;;;;41.48;18.82;;;;;;;-2.13;91.63;100585.34;1703153;82;21381;-47
2020/12/13 00:26:51;;;;;;;39.20;17.80;;;;;;;-2.12;91.32;100587.05;1703053;82;21046;-47
2020/12/13 00:29:18;;;;;;;42.00;18.57;;;;;;;-2.16;91.01;100585.42;1702983;83;21167;-47
2020/12/13 00:31:46;;;;;;;36.95;17.17;;;;;;;-2.19;90.99;100591.98;1732598;82;22130;-47
2020/12/13 00:34:13;;;;;;;38.20;17.00;;;;;;;-2.16;91.11;100593.20;1684452;81;22135;-47
2020/12/13 00:36:42;;;;;;;37.00;18.05;;;;;;;-2.16;90.96;100590.61;1714512;82;21380;-48
2020/12/13 00:39:09;;;;;;;39.30;17.62;;;;;;;-2.19;90.82;100586.80;1703544;83;21415;-47
2020/12/13 00:41:37;;;;;;;43.87;18.67;;;;;;;-2.19;90.77;100590.23;1716577;82;21144;-47
2020/12/13 00:44:05;;;;;;;37.65;16.57;;;;;;;-2.21;90.72;100593.77;1715756;81;21123;-47
2020/12/13 00:46:39;;;;;;;47.00;21.60;;;;;;;-2.25;90.76;100589.09;1720639;81;21140;-47
2020/12/13 00:49:07;;;;;;;48.25;21.75;;;;;;;-2.28;90.86;100584.84;1698985;81;22598;-47
2020/12/13 00:51:35;;;;;;;49.20;20.52;;;;;;;-2.26;91.05;100582.20;1720945;81;21185;-47
2020/12/13 00:54:03;;;;;;;41.23;17.42;;;;;;;-2.19;91.26;100579.02;1740522;81;21678;-46
2020/12/13 00:56:31;;;;;;;42.55;19.32;;;;;;;-2.14;91.39;100581.05;1738494;81;21139;-48
2020/12/13 00:58:59;;;;;;;41.50;18.48;;;;;;;-2.08;91.40;100574.38;1742385;79;21136;-45
2020/12/13 01:01:27;;;;;;;46.13;19.82;;;;;;;-2.05;91.37;100568.27;1751110;81;21369;-47
2020/12/13 01:03:55;;;;;;;37.23;18.90;;;;;;;-2.02;91.38;100575.51;1736237;81;21318;-47
2020/12/13 01:06:24;;;;;;;46.10;18.20;;;;;;;-1.94;91.59;100567.07;1706263;83;21003;-46
2020/12/13 01:08:52;;;;;;;40.50;20.15;;;;;;;-1.88;91.40;100562.61;1701417;82;21157;-47
2020/12/13 01:11:25;;;;;;;39.92;16.55;;;;;;;-1.95;90.92;100568.42;1693936;83;21681;-47
2020/12/13 01:13:52;;;;;;;38.95;17.23;;;;;;;-2.09;90.70;100556.68;1688086;83;21353;-47
2020/12/13 01:16:20;;;;;;;36.77;17.00;;;;;;;-2.20;90.79;100554.81;1658823;84;22003;-47
2020/12/13 01:18:48;;;;;;;35.98;16.27;;;;;;;-2.24;91.11;100555.36;1669365;84;21140;-47
2020/12/13 01:21:24;;;;;;;39.48;17.65;;;;;;;-2.24;91.34;100563.13;1673836;84;21112;-47
2020/12/13 01:23:53;;;;;;;36.30;16.93;;;;;;;-2.20;91.56;100561.76;1695229;83;21131;-47
2020/12/13 01:26:21;;;;;;;37.50;17.42;;;;;;;-2.15;91.77;100553.41;1673499;83;21406;-47
2020/12/13 01:28:49;;;;;;;38.92;17.77;;;;;;;-2.07;91.95;100554.03;1675658;83;22095;-47
2020/12/13 01:31:19;;;;;;;35.38;16.75;;;;;;;-1.95;92.03;100558.05;1679841;83;21188;-47
2020/12/13 01:33:48;;;;;;;38.20;18.77;;;;;;;-1.91;91.98;100558.37;1693780;83;21932;-47
2020/12/13 01:36:17;;;;;;;33.88;15.60;;;;;;;-1.91;91.90;100551.88;1678774;83;21167;-47
2020/12/13 01:38:45;;;;;;;34.38;14.58;;;;;;;-1.86;91.88;100548.72;1676128;83;21390;-47
2020/12/13 01:41:13;;;;;;;34.90;15.55;;;;;;;-1.85;91.71;100550.41;1673673;83;21399;-47
2020/12/13 01:43:41;;;;;;;33.23;14.43;;;;;;;-1.91;91.46;100549.72;1681923;83;21166;-47
2020/12/13 01:46:09;;;;;;;27.70;12.55;;;;;;;-1.99;91.42;100549.95;1666637;83;21614;-47
2020/12/13 01:48:36;;;;;;;31.02;15.35;;;;;;;-1.97;91.66;100549.45;1691704;83;21164;-47
2020/12/13 01:51:14;;;;;;;28.65;14.35;;;;;;;-1.96;91.70;100544.21;1666928;85;23068;-48
2020/12/13 01:53:38;;;;;;;26.80;12.98;;;;;;;-1.96;91.71;100543.38;1658308;84;22171;-47
2020/12/13 01:56:05;;;;;;;31.02;15.08;;;;;;;-1.94;91.82;100539.83;1692539;83;21061;-47
2020/12/13 01:58:37;;;;;;;32.73;15.03;;;;;;;-1.91;91.75;100547.12;1683758;84;21174;-47
2020/12/13 02:01:07;;;;;;;36.05;15.93;;;;;;;-1.95;91.66;100540.72;1718966;81;21128;-47
2020/12/13 02:03:52;;;;;;;30.68;15.25;;;;;;;-1.98;91.69;100541.27;1726277;81;21559;-47
2020/12/13 02:06:24;;;;;;;33.28;16.60;;;;;;;-1.97;91.82;100543.80;1736445;81;21562;-47
2020/12/13 02:08:52;;;;;;;31.00;15.03;;;;;;;-1.99;91.85;100544.30;1740349;81;21136;-47
2020/12/13 02:11:19;;;;;;;30.50;15.05;;;;;;;-2.00;91.92;100543.89;1727581;81;21814;-47
2020/12/13 02:13:48;;;;;;;33.33;16.52;;;;;;;-1.98;91.98;100549.05;1731286;81;21524;-48
2020/12/13 02:16:16;;;;;;;32.90;16.35;;;;;;;-1.97;92.05;100555.48;1733713;81;21281;-48
2020/12/13 02:18:44;;;;;;;32.83;17.10;;;;;;;-1.97;92.09;100547.70;1727024;81;21183;-48
2020/12/13 02:21:12;;;;;;;37.42;18.30;;;;;;;-1.93;92.23;100538.10;1730987;81;21144;-48
2020/12/13 02:23:40;;;;;;;33.73;17.32;;;;;;;-1.87;92.29;100544.85;1734171;81;21131;-48
2020/12/13 02:26:12;;;;;;;30.77;15.10;;;;;;;-1.84;92.28;100538.28;1741947;81;21169;-48
2020/12/13 02:28:40;;;;;;;31.82;15.65;;;;;;;-1.77;92.40;100548.89;1714621;81;21157;-48
2020/12/13 02:31:08;;;;;;;28.65;13.43;;;;;;;-1.72;92.45;100547.02;1739307;81;21927;-48
2020/12/13 02:33:36;;;;;;;25.27;12.90;;;;;;;-1.71;92.29;100553.91;1733690;81;21141;-48
2020/12/13 02:36:05;;;;;;;31.93;16.65;;;;;;;-1.74;92.21;100555.75;1731043;81;21639;-48
2020/12/13 02:38:33;;;;;;;28.98;14.70;;;;;;;-1.77;92.12;100547.59;1745240;81;21139;-47
2020/12/13 02:41:01;;;;;;;33.05;16.37;;;;;;;-1.74;92.28;100551.40;1751628;81;21221;-47
2020/12/13 02:43:28;;;;;;;29.52;15.38;;;;;;;-1.70;92.39;100550.42;1739523;81;21168;-47
2020/12/13 02:45:56;;;;;;;32.17;16.35;;;;;;;-1.62;92.46;100546.75;1746122;81;22004;-47
2020/12/13 02:48:25;;;;;;;32.13;15.78;;;;;;;-1.60;92.41;100538.47;1742583;81;21124;-47
2020/12/13 02:50:52;;;;;;;26.12;14.55;;;;;;;-1.58;92.36;100539.28;1735330;81;21125;-47
2020/12/13 02:53:20;;;;;;;31.40;15.53;;;;;;;-1.60;92.16;100534.58;1740917;81;22010;-47
2020/12/13 02:55:48;;;;;;;33.75;15.00;;;;;;;-1.64;92.02;100538.56;1735323;81;21163;-47
2020/12/13 02:58:16;;;;;;;30.10;14.40;;;;;;;-1.70;91.98;100537.44;1726133;81;21655;-47
2020/12/13 03:00:43;;;;;;;30.35;15.55;;;;;;;-1.75;92.05;100523.75;1726559;81;21117;-47
2020/12/13 03:03:11;;;;;;;32.03;14.47;;;;;;;-1.76;92.16;100536.31;1731141;81;21141;-47
2020/12/13 03:05:39;;;;;;;32.75;16.45;;;;;;;-1.73;92.40;100541.42;1726371;81;21612;-47
2020/12/13 03:08:08;;;;;;;30.92;15.05;;;;;;;-1.68;92.53;100533.52;1725959;81;21202;-47
2020/12/13 03:10:36;;;;;;;32.45;16.30;;;;;;;-1.64;92.59;100537.27;1731095;81;21152;-47
2020/12/13 03:13:04;;;;;;;28.65;14.68;;;;;;;-1.58;92.67;100535.38;1726133;81;21770;-47
2020/12/13 03:15:31;;;;;;;32.42;16.12;;;;;;;-1.49;92.77;100538.55;1737303;81;21468;-48
2020/12/13 03:17:59;;;;;;;34.92;17.30;;;;;;;-1.41;92.77;100538.34;1733176;81;22310;-47
2020/12/13 03:20:26;;;;;;;38.13;17.98;;;;;;;-1.36;92.71;100547.27;1733304;81;21932;-47
2020/12/13 03:22:54;;;;;;;35.17;18.02;;;;;;;-1.36;92.50;100550.73;1726026;81;21133;-47
2020/12/13 03:25:21;;;;;;;34.80;16.77;;;;;;;-1.42;92.18;100549.62;1734299;81;21147;-47
2020/12/13 03:27:49;;;;;;;29.70;15.23;;;;;;;-1.48;92.11;100547.20;1742030;81;21125;-47
2020/12/13 03:30:16;;;;;;;38.35;17.23;;;;;;;-1.49;92.12;100550.69;1726114;81;21206;-47
2020/12/13 03:32:44;;;;;;;32.80;16.77;;;;;;;-1.49;92.25;100544.20;1725977;81;21140;-48
2020/12/13 03:35:12;;;;;;;36.83;19.07;;;;;;;-1.41;92.51;100544.83;1730954;81;21148;-47
2020/12/13 03:37:39;;;;;;;32.70;16.10;;;;;;;-1.35;92.54;100548.54;1745184;81;21119;-47
2020/12/13 03:40:11;;;;;;;33.42;16.37;;;;;;;-1.26;92.74;100539.61;1734426;81;21628;-47
2020/12/13 03:42:41;;;;;;;30.05;13.85;;;;;;;-1.18;92.61;100539.39;1746950;81;21343;-47
2020/12/13 03:45:08;;;;;;;29.90;14.70;;;;;;;-1.16;92.46;100535.42;1731113;81;21155;-47
2020/12/13 03:47:36;;;;;;;34.27;16.40;;;;;;;-1.19;92.22;100542.41;1750196;81;21143;-47
2020/12/13 03:50:04;;;;;;;39.40;16.62;;;;;;;-1.28;92.01;100540.09;1740838;81;21140;-48
2020/12/13 03:52:32;;;;;;;33.18;15.85;;;;;;;-1.35;92.02;100535.55;1745752;81;22152;-47
2020/12/13 03:54:59;;;;;;;33.05;15.85;;;;;;;-1.42;92.04;100529.28;1725921;81;21412;-48
2020/12/13 03:57:27;;;;;;;30.17;15.38;;;;;;;-1.45;92.21;100526.77;1726117;81;22085;-47
2020/12/13 03:59:54;;;;;;;29.15;13.98;;;;;;;-1.42;92.42;100522.78;1730465;81;21137;-47
2020/12/13 04:02:22;;;;;;;32.30;17.10;;;;;;;-1.37;92.59;100516.58;1733523;81;22258;-47
2020/12/13 04:04:50;;;;;;;31.75;16.65;;;;;;;-1.29;92.70;100525.41;1730934;81;21124;-48
2020/12/13 04:07:17;;;;;;;33.50;17.05;;;;;;;-1.22;92.81;100513.11;1730885;81;21382;-47
2020/12/13 04:09:45;;;;;;;33.48;17.55;;;;;;;-1.14;92.86;100518.91;1728894;81;21163;-47
2020/12/13 04:12:12;;;;;;;35.00;16.05;;;;;;;-1.05;92.79;100519.05;1731913;81;21617;-48
2020/12/13 04:14:40;;;;;;;26.97;13.62;;;;;;;-1.02;92.55;100523.29;1726079;81;21609;-47
2020/12/13 04:17:08;;;;;;;31.05;15.48;;;;;;;-1.06;92.34;100521.25;1729294;81;21119;-47
2020/12/13 04:19:36;;;;;;;45.05;19.98;;;;;;;-1.10;92.31;100528.74;1731304;81;21717;-47
2020/12/13 04:22:04;;;;;;;43.33;19.85;;;;;;;-1.11;92.46;100532.23;1735213;81;22041;-47
2020/12/13 04:24:31;;;;;;;34.95;16.90;;;;;;;-1.07;92.63;100539.03;1731159;81;21575;-47
2020/12/13 04:26:59;;;;;;;37.28;18.77;;;;;;;-0.99;92.82;100542.25;1731133;81;21152;-47
2020/12/13 04:29:26;;;;;;;36.60;17.60;;;;;;;-0.91;92.80;100548.48;1726163;81;21124;-47
2020/12/13 04:31:53;;;;;;;35.52;16.12;;;;;;;-0.86;92.81;100546.59;1731931;81;21485;-47
2020/12/13 04:34:21;;;;;;;28.85;13.03;;;;;;;-0.78;92.87;100547.66;1751776;81;21691;-47
2020/12/13 04:36:49;;;;;;;31.87;16.17;;;;;;;-0.73;92.71;100541.00;1737894;81;21156;-48
2020/12/13 04:39:18;;;;;;;34.05;17.30;;;;;;;-0.78;92.42;100546.36;1745391;81;20982;-46
2020/12/13 04:41:46;;;;;;;33.92;16.73;;;;;;;-0.83;92.33;100538.70;1732696;81;21112;-47
2020/12/13 04:44:13;;;;;;;31.15;15.78;;;;;;;-0.83;92.37;100539.16;1728050;81;21376;-47
2020/12/13 04:46:41;;;;;;;32.20;16.23;;;;;;;-0.77;92.55;100535.06;1721942;81;22198;-47
2020/12/13 04:49:09;;;;;;;33.25;16.35;;;;;;;-0.72;92.56;100530.56;1713872;81;21151;-48
2020/12/13 04:51:36;;;;;;;33.53;17.10;;;;;;;-0.64;92.64;100534.20;1741968;81;21148;-48
2020/12/13 04:54:05;;;;;;;34.05;17.05;;;;;;;-0.58;92.70;100530.09;1728144;81;21132;-47
2020/12/13 04:56:35;;;;;;;33.02;17.52;;;;;;;-0.52;92.78;100535.09;1743276;81;21433;-47
2020/12/13 04:59:05;;;;;;;34.13;17.20;;;;;;;-0.48;92.61;100534.09;1725988;81;21505;-47
2020/12/13 05:01:32;;;;;;;28.50;16.17;;;;;;;-0.48;92.35;100535.38;1733046;81;21140;-47
2020/12/13 05:04:00;;;;;;;28.23;15.05;;;;;;;-0.52;92.12;100535.09;1744673;81;21143;-47
2020/12/13 05:06:27;;;;;;;29.90;15.88;;;;;;;-0.52;91.96;100542.89;1731623;81;21960;-47
2020/12/13 05:08:55;;;;;;;29.50;16.45;;;;;;;-0.54;92.05;100544.69;1718569;81;21573;-47
2020/12/13 05:11:22;;;;;;;28.20;16.42;;;;;;;-0.52;92.21;100535.09;1739962;81;21140;-47
2020/12/13 05:13:50;;;;;;;36.17;19.90;;;;;;;-0.47;92.40;100530.58;1741052;81;22235;-47
2020/12/13 05:16:17;;;;;;;38.25;20.17;;;;;;;-0.42;92.46;100538.22;1726173;81;21585;-47
2020/12/13 05:18:45;;;;;;;41.20;18.60;;;;;;;-0.38;92.47;100535.91;1735011;81;21113;-47
2020/12/13 05:21:22;;;;;;;33.10;16.52;;;;;;;-0.37;92.33;100541.51;1726215;81;21378;-48
2020/12/13 05:23:50;;;;;;;39.45;19.75;;;;;;;-0.39;92.04;100542.48;1730884;81;21129;-47
2020/12/13 05:26:21;;;;;;;40.55;20.72;;;;;;;-0.41;92.10;100537.78;1733012;81;21143;-47
2020/12/13 05:28:51;;;;;;;38.08;19.45;;;;;;;-0.38;92.37;100531.17;1759078;81;21573;-47
2020/12/13 05:31:22;;;;;;;51.33;23.62;;;;;;;-0.34;92.53;100531.47;1751712;81;21138;-47
2020/12/13 05:33:52;;;;;;;53.42;26.25;;;;;;;-0.28;92.66;100529.95;1734183;81;21771;-47
2020/12/13 05:36:19;;;;;;;52.10;25.80;;;;;;;-0.24;92.78;100535.88;1733756;81;21155;-47
2020/12/13 05:38:47;;;;;;;54.83;28.42;;;;;;;-0.21;92.80;100529.28;1727121;81;21902;-47
2020/12/13 05:41:15;;;;;;;57.33;27.98;;;;;;;-0.21;92.65;100536.64;1738780;81;21175;-47
2020/12/13 05:44:03;;;;;;;55.83;27.40;;;;;;;-0.20;92.67;100536.18;1751625;81;21152;-47
2020/12/13 05:46:49;;;;;;;48.15;24.63;;;;;;;-0.20;92.68;100533.14;1729704;81;22639;-46
2020/12/13 05:49:17;;;;;;;50.95;24.98;;;;;;;-0.20;92.68;100542.25;1737172;81;21639;-47
2020/12/13 05:51:38;;;;;;;57.65;26.40;;;;;;;-0.18;92.84;100536.54;1747392;81;20998;-47
2020/12/13 05:54:18;;;;;;;59.08;25.88;;;;;;;-0.14;92.85;100542.94;1735089;81;29235;-47
2020/12/13 05:56:40;;;;;;;55.33;25.57;;;;;;;-0.18;92.69;100533.94;1739492;81;21610;-47
2020/12/13 05:59:08;;;;;;;56.13;25.25;;;;;;;-0.17;92.75;100530.43;1737166;81;21199;-47
2020/12/13 06:01:36;;;;;;;54.73;25.45;;;;;;;-0.15;92.78;100532.97;1730653;81;22200;-47
2020/12/13 06:04:09;;;;;;;62.88;26.02;;;;;;;-0.14;92.78;100528.63;1723746;81;21137;-47
2020/12/13 06:06:38;;;;;;;55.50;26.40;;;;;;;-0.15;92.76;100529.06;1722434;81;21113;-47
2020/12/13 06:09:13;;;;;;;58.02;26.62;;;;;;;-0.16;92.81;100532.13;1724116;81;21117;-47
2020/12/13 06:11:47;;;;;;;59.65;26.57;;;;;;;-0.12;92.93;100534.63;1733452;81;21376;-47
2020/12/13 06:14:22;;;;;;;58.92;27.55;;;;;;;-0.13;92.83;100536.36;1726446;81;22404;-47
2020/12/13 06:16:50;;;;;;;66.10;29.30;;;;;;;-0.15;92.82;100535.56;1717997;81;21712;-47
2020/12/13 06:19:21;;;;;;;57.48;26.52;;;;;;;-0.16;92.92;100541.23;1718105;81;21140;-47
2020/12/13 06:21:48;;;;;;;61.25;28.40;;;;;;;-0.17;92.96;100553.84;1718990;81;21161;-47
2020/12/13 06:24:16;;;;;;;55.63;28.95;;;;;;;-0.17;93.14;100553.84;1703170;83;22054;-47
2020/12/13 06:26:44;;;;;;;65.32;28.55;;;;;;;-0.12;93.34;100554.97;1726626;81;21151;-47
2020/12/13 06:29:11;;;;;;;58.80;27.42;;;;;;;-0.02;93.76;100554.22;1718290;81;21116;-47
2020/12/13 06:31:40;;;;;;;62.55;27.17;;;;;;;0.09;94.00;100550.75;1718284;81;22097;-47
2020/12/13 06:34:08;;;;;;;65.80;28.75;;;;;;;0.06;93.52;100554.77;1703833;83;21181;-47
2020/12/13 06:36:37;;;;;;;63.85;26.93;;;;;;;0.01;93.40;100552.77;1718660;81;22750;-47
2020/12/13 06:39:14;;;;;;;63.48;28.45;;;;;;;0.00;93.32;100556.31;1716243;81;21145;-47
2020/12/13 06:41:43;;;;;;;61.90;27.67;;;;;;;-0.06;93.25;100546.95;1690852;83;21145;-46
2020/12/13 06:44:12;;;;;;;58.40;26.15;;;;;;;-0.02;93.49;100554.22;1707544;83;21093;-46
2020/12/13 06:46:43;;;;;;;72.05;26.85;;;;;;;-0.04;93.27;100561.23;1718954;81;21617;-48
2020/12/13 06:49:17;;;;;;;67.60;28.90;;;;;;;-0.07;93.44;100557.44;1722364;81;23081;-46
2020/12/13 06:51:45;;;;;;;63.60;28.40;;;;;;;-0.04;93.49;100553.42;1718424;81;21152;-46
2020/12/13 06:54:15;;;;;;;60.45;28.23;;;;;;;-0.06;93.33;100552.16;1710844;81;22074;-47
2020/12/13 06:56:43;;;;;;;67.37;28.73;;;;;;;-0.05;93.44;100545.22;1718721;81;21109;-47
2020/12/13 06:59:11;;;;;;;66.57;29.70;;;;;;;-0.05;93.37;100544.75;1722036;81;21153;-47
2020/12/13 07:01:41;;;;;;;63.68;26.77;;;;;;;-0.08;93.20;100545.32;1729766;81;22192;-46
2020/12/13 07:04:37;;;;;;;64.25;27.67;;;;;;;-0.10;93.22;100551.86;1723156;81;21616;-47
2020/12/13 07:07:12;;;;;;;67.40;27.98;;;;;;;-0.11;93.29;100546.27;1718381;81;21161;-47
2020/12/13 07:09:37;;;;;;;67.30;29.98;;;;;;;-0.12;93.38;100541.97;1735474;81;21137;-47
2020/12/13 07:12:04;;;;;;;67.97;26.97;;;;;;;-0.10;93.48;100551.86;1655443;84;21133;-47
2020/12/13 07:14:34;;;;;;;66.85;27.77;;;;;;;-0.08;93.57;100547.92;1702410;82;21491;-47
2020/12/13 07:19:40;;;;;;;60.17;24.12;;;;;;;-0.01;93.61;100545.50;1874068;76;22790;-47
2020/12/13 07:22:13;;;;;;;65.40;30.05;;;;;;;-0.04;93.69;100550.81;1807187;77;21538;-47
2020/12/13 07:24:43;;;;;;;66.80;30.60;;;;;;;-0.04;93.72;100559.92;1804377;77;21187;-47
2020/12/13 07:27:10;;;;;;;74.75;30.82;;;;;;;-0.04;93.72;100550.81;1814051;77;21000;-48
2020/12/13 07:29:39;;;;;;;66.00;25.32;;;;;;;-0.02;93.69;100559.42;1818891;77;21007;-47
2020/12/13 07:32:07;;;;;;;66.40;28.73;;;;;;;-0.03;93.56;100561.63;1797147;79;21932;-49
2020/12/13 07:34:35;;;;;;;65.67;26.97;;;;;;;-0.06;93.43;100555.23;1790078;79;20993;-47
2020/12/13 07:37:02;;;;;;;73.02;30.90;;;;;;;-0.07;93.43;100556.13;1765371;79;21179;-47
2020/12/13 07:39:30;;;;;;;73.07;29.87;;;;;;;-0.07;93.68;100554.83;1775660;79;20997;-48
2020/12/13 07:41:58;;;;;;;64.85;28.73;;;;;;;-0.05;93.82;100555.16;1765621;79;21135;-48
2020/12/13 07:44:32;;;;;;;70.78;32.05;;;;;;;-0.02;93.87;100564.62;1701141;83;22095;-48
2020/12/13 07:47:00;;;;;;;71.05;31.93;;;;;;;-0.01;93.85;100562.42;1728411;81;20986;-47
2020/12/13 07:49:27;;;;;;;71.55;30.52;;;;;;;-0.01;93.85;100556.75;1711869;82;21434;-48
2020/12/13 07:51:57;;;;;;;74.07;30.60;;;;;;;0.01;93.87;100559.28;1718326;81;21019;-48
2020/12/13 07:54:29;;;;;;;63.25;29.90;;;;;;;-0.03;93.65;100561.16;1715697;81;22022;-48
2020/12/13 07:56:59;;;;;;;69.90;31.87;;;;;;;-0.06;93.55;100565.64;1720061;81;20995;-47
2020/12/13 07:59:28;;;;;;;67.97;30.77;;;;;;;-0.08;93.60;100571.34;1700940;83;21126;-48
2020/12/13 08:01:57;;;;;;;63.65;27.65;;;;;;;-0.07;93.66;100566.54;1714344;83;21257;-48
2020/12/13 08:04:35;;;;;;;71.40;31.10;;;;;;;-0.05;93.67;100579.05;1712455;81;21049;-47
2020/12/13 08:07:10;;;;;;;66.90;30.80;;;;;;;-0.07;93.69;100587.36;1719684;81;21559;-47
2020/12/13 08:12:18;;;;;;;76.33;33.13;;;;;;;0.01;93.94;100585.77;1852554;76;22691;-47
2020/12/13 08:14:50;;;;;;;72.58;30.65;;;;;;;-0.02;93.94;100591.95;1804193;77;21221;-48
2020/12/13 08:17:17;;;;;;;73.87;30.57;;;;;;;-0.02;94.00;100589.35;1825344;77;22535;-47
2020/12/13 08:19:48;;;;;;;73.70;32.17;;;;;;;0.00;94.03;100586.24;1809411;77;21062;-47
2020/12/13 08:22:24;;;;;;;78.85;34.23;;;;;;;0.01;94.09;100593.11;1813432;77;22491;-47
2020/12/13 08:24:55;;;;;;;73.45;34.80;;;;;;;0.01;94.06;100592.28;1829392;77;20947;-47
2020/12/13 08:27:22;;;;;;;86.17;38.40;;;;;;;0.01;94.11;100601.39;1816599;77;22090;-47
2020/12/13 08:29:51;;;;;;;79.72;34.30;;;;;;;-0.01;94.11;100598.86;1817476;77;21366;-47
2020/12/13 08:32:23;;;;;;;77.85;33.88;;;;;;;-0.03;94.00;100597.59;1807929;78;20995;-48
2020/12/13 08:34:51;;;;;;;83.67;37.48;;;;;;;-0.06;93.97;100582.55;1805257;78;21010;-47
2020/12/13 08:37:24;;;;;;;83.17;38.00;;;;;;;-0.07;94.11;100579.55;1800329;78;21080;-47
2020/12/13 08:39:54;;;;;;;75.12;33.48;;;;;;;-0.05;94.29;100573.84;1801664;78;21129;-47
2020/12/13 08:42:23;;;;;;;64.87;29.65;;;;;;;-0.01;94.34;100578.03;1803500;78;23092;-47
2020/12/13 08:44:50;;;;;;;77.12;32.25;;;;;;;0.01;94.40;100585.77;1799364;78;20986;-47
2020/12/13 08:47:19;;;;;;;68.92;30.10;;;;;;;0.02;94.39;100578.36;1794019;78;20954;-48
2020/12/13 08:49:49;;;;;;;74.58;30.68;;;;;;;0.05;94.39;100579.09;1786005;78;21376;-48
2020/12/13 08:52:24;;;;;;;66.60;27.98;;;;;;;0.05;94.22;100577.79;1793541;78;21101;-48
2020/12/13 08:54:57;;;;;;;70.40;33.18;;;;;;;0.04;94.02;100576.56;1790036;78;21923;-47
2020/12/13 08:57:35;;;;;;;75.20;33.67;;;;;;;0.00;93.92;100569.33;1794033;78;22096;-47
2020/12/13 09:00:10;;;;;;;70.15;32.33;;;;;;;-0.01;93.91;100567.62;1750251;80;21965;-47
2020/12/13 09:02:39;;;;;;;65.57;30.77;;;;;;;0.00;93.94;100571.92;1752353;79;21155;-47
2020/12/13 09:05:07;;;;;;;69.03;31.48;;;;;;;0.02;93.93;100564.88;1746395;79;22098;-47
2020/12/13 09:07:35;;;;;;;75.87;32.75;;;;;;;0.02;93.98;100564.88;1760903;80;21384;-47
2020/12/13 09:10:13;;;;;;;70.90;31.25;;;;;;;0.05;94.00;100560.03;1767186;80;22072;-47
2020/12/13 09:12:41;;;;;;;64.25;31.45;;;;;;;0.06;93.96;100559.97;1763098;79;21025;-47
2020/12/13 09:15:15;;;;;;;61.85;28.02;;;;;;;0.08;93.97;100559.46;1733115;81;21144;-47
2020/12/13 09:17:59;;;;;;;69.70;30.88;;;;;;;0.12;93.92;100560.22;1735849;81;21124;-47
2020/12/13 09:20:34;;;;;;;59.03;28.12;;;;;;;0.13;93.88;100558.84;1731603;81;21385;-47
2020/12/13 09:25:47;;;;;;;65.52;30.15;;;;;;;0.24;93.77;100545.45;1861915;76;22471;-47
2020/12/13 09:28:15;;;;;;;64.87;28.95;;;;;;;0.19;93.49;100544.77;1809362;77;21188;-47
2020/12/13 09:30:43;;;;;;;68.35;29.95;;;;;;;0.13;93.20;100539.33;1807973;77;21352;-46
2020/12/13 09:33:13;;;;;;;67.15;29.27;;;;;;;0.11;93.14;100535.92;1823257;77;21082;-48
2020/12/13 09:35:41;;;;;;;65.70;28.67;;;;;;;0.12;93.17;100539.39;1806951;77;21041;-47
2020/12/13 09:38:10;;;;;;;73.75;30.65;;;;;;;0.13;93.21;100531.52;1818887;77;21478;-47
2020/12/13 09:40:38;;;;;;;65.35;30.27;;;;;;;0.15;93.17;100526.27;1807924;77;21185;-47
2020/12/13 09:43:06;;;;;;;66.33;30.52;;;;;;;0.17;93.09;100527.06;1815362;77;21184;-47
2020/12/13 09:45:34;;;;;;;71.17;29.60;;;;;;;0.19;93.03;100529.16;1818157;77;20979;-47
2020/12/13 09:48:01;;;;;;;68.33;31.57;;;;;;;0.21;92.97;100532.55;1817396;77;21910;-47
2020/12/13 09:50:29;;;;;;;62.93;30.70;;;;;;;0.24;92.96;100532.44;1811944;77;21176;-48
2020/12/13 09:52:57;;;;;;;68.22;30.48;;;;;;;0.24;92.85;100527.23;1813371;77;21168;-47
2020/12/13 09:55:24;;;;;;;69.50;32.20;;;;;;;0.23;92.63;100527.27;1820033;77;21427;-48
2020/12/13 09:57:53;;;;;;;79.97;30.00;;;;;;;0.19;92.58;100521.34;1815473;77;21217;-47
2020/12/13 10:00:21;;;;;;;73.35;31.77;;;;;;;0.18;92.60;100523.98;1774538;79;21720;-47
2020/12/13 10:02:48;;;;;;;77.22;31.75;;;;;;;0.14;92.61;100518.89;1746487;80;21212;-48
2020/12/13 10:05:23;;;;;;;72.45;30.55;;;;;;;0.11;92.63;100515.10;1747974;80;21176;-47
2020/12/13 10:10:14;;;;;;;65.83;32.35;;;;;;;0.11;92.78;100511.20;1756263;80;21077;-47
2020/12/13 10:12:44;;;;;;;71.72;31.82;;;;;;;0.17;92.94;100519.69;1747270;80;21209;-47
2020/12/13 10:15:13;;;;;;;75.32;33.25;;;;;;;0.18;92.95;100513.14;1753970;80;22533;-47
2020/12/13 10:17:41;;;;;;;64.47;29.80;;;;;;;0.22;92.92;100522.97;1755966;80;21193;-47
2020/12/13 10:20:09;;;;;;;65.62;30.27;;;;;;;0.24;92.82;100515.95;1757337;80;21954;-47
2020/12/13 10:22:37;;;;;;;65.92;31.50;;;;;;;0.27;92.78;100509.33;1746430;80;21244;-48
2020/12/13 10:25:04;;;;;;;64.20;30.77;;;;;;;0.29;92.67;100512.73;1747104;80;22594;-47
2020/12/13 10:27:34;;;;;;;71.70;32.90;;;;;;;0.27;92.55;100508.89;1745674;80;21219;-46
2020/12/13 10:30:02;;;;;;;68.85;31.82;;;;;;;0.27;92.50;100510.63;1745178;80;21188;-47
2020/12/13 10:32:30;;;;;;;72.10;31.10;;;;;;;0.21;92.31;100503.05;1746209;80;22822;-47
2020/12/13 10:34:57;;;;;;;64.82;29.45;;;;;;;0.14;92.37;100500.67;1753399;80;21248;-47
2020/12/13 10:37:25;;;;;;;74.40;33.58;;;;;;;0.16;92.50;100505.84;1747379;80;21209;-47
2020/12/13 10:39:52;;;;;;;82.37;34.23;;;;;;;0.17;92.68;100501.03;1754135;80;22758;-47
2020/12/13 10:42:20;;;;;;;75.00;34.38;;;;;;;0.20;92.75;100493.54;1743344;80;21441;-47
2020/12/13 10:44:47;;;;;;;75.87;33.88;;;;;;;0.21;92.76;100490.89;1746026;80;21255;-47
2020/12/13 10:47:15;;;;;;;70.87;30.35;;;;;;;0.24;92.77;100495.13;1741462;80;21211;-46
2020/12/13 10:49:43;;;;;;;68.35;31.77;;;;;;;0.24;92.74;100496.42;1768561;80;22254;-46
2020/12/13 10:52:10;;;;;;;69.80;30.40;;;;;;;0.25;92.78;100494.22;1756744;80;21799;-46
2020/12/13 10:54:38;;;;;;;63.60;29.25;;;;;;;0.27;92.74;100513.23;1756726;80;21204;-46
2020/12/13 10:57:07;;;;;;;72.67;32.13;;;;;;;0.27;92.66;100492.41;1776208;80;21464;-47
2020/12/13 10:59:36;;;;;;;67.92;26.23;;;;;;;0.26;92.50;100498.09;1757313;80;21256;-47
2020/12/13 11:02:04;;;;;;;64.47;29.02;;;;;;;0.20;92.42;100492.23;1748910;80;21192;-47
2020/12/13 11:04:33;;;;;;;65.90;30.90;;;;;;;0.17;92.54;100490.61;1738398;80;21698;-46
2020/12/13 11:07:00;;;;;;;67.20;30.40;;;;;;;0.19;92.73;100491.84;1760935;80;21212;-47
2020/12/13 11:09:28;;;;;;;54.60;26.95;;;;;;;0.22;92.79;100500.84;1755806;80;21444;-47
2020/12/13 11:11:56;;;;;;;64.62;28.87;;;;;;;0.26;92.81;100503.73;1769165;80;22503;-47
2020/12/13 11:14:23;;;;;;;61.92;29.40;;;;;;;0.27;92.77;100503.69;1760586;80;21180;-47
2020/12/13 11:16:51;;;;;;;66.45;29.18;;;;;;;0.28;92.71;100501.48;1749317;80;21296;-47
2020/12/13 11:19:19;;;;;;;61.40;28.57;;;;;;;0.31;92.71;100509.61;1748535;80;21200;-47
2020/12/13 11:21:46;;;;;;;61.48;27.55;;;;;;;0.33;92.64;100503.06;1746387;80;21353;-47
2020/12/13 11:24:13;;;;;;;60.92;27.52;;;;;;;0.31;92.42;100501.80;1754626;80;21200;-48
2020/12/13 11:26:47;;;;;;;64.20;29.45;;;;;;;0.28;92.37;100506.69;1782737;78;21570;-48
2020/12/13 11:29:14;;;;;;;59.00;27.45;;;;;;;0.28;92.36;100504.52;1752822;80;21184;-48
2020/12/13 11:31:43;;;;;;;58.78;28.85;;;;;;;0.27;92.31;100505.42;1777309;78;21865;-46